sensor_id;sensor_type;location;lat;lon;timestamp;P1;durP1;ratioP1;P2;durP2;ratioP2
20344;SDS011;10330;48.816;9.278;2022-07-06T00:00:52;1.77;;;1.67;;
20344;SDS011;10330;48.816;9.278;2022-07-06T00:03:18;8.63;;;2.22;;
20344;SDS011;10330;48.816;9.278;2022-07-06T00:05:44;1.60;;;1.50;;
20344;SDS011;10330;48.816;9.278;2022-07-06T00:08:10;1.48;;;1.38;;
20344;SDS011;10330;48.816;9.278;2022-07-06T00:10:36;2.47;;;1.20;;
20344;SDS011;10330;48.816;9.278;2022-07-06T00:13:03;5.10;;;1.92;;
20344;SDS011;10330;48.816;9.278;2022-07-06T00:15:29;3.60;;;1.80;;
20344;SDS011;10330;48.816;9.278;2022-07-06T00:17:55;1.65;;;1.60;;
20344;SDS011;10330;48.816;9.278;2022-07-06T00:20:21;1.75;;;1.50;;
20344;SDS011;10330;48.816;9.278;2022-07-06T00:22:47;2.35;;;1.92;;
20344;SDS011;10330;48.816;9.278;2022-07-06T00:25:13;4.20;;;1.90;;
20344;SDS011;10330;48.816;9.278;2022-07-06T00:27:40;3.20;;;1.67;;
20344;SDS011;10330;48.816;9.278;2022-07-06T00:30:06;4.43;;;1.95;;
20344;SDS011;10330;48.816;9.278;2022-07-06T00:32:33;4.88;;;1.73;;
20344;SDS011;10330;48.816;9.278;2022-07-06T00:34:59;4.57;;;1.88;;
20344;SDS011;10330;48.816;9.278;2022-07-06T00:37:25;4.97;;;1.70;;
20344;SDS011;10330;48.816;9.278;2022-07-06T00:39:51;2.30;;;1.92;;
20344;SDS011;10330;48.816;9.278;2022-07-06T00:42:17;3.70;;;1.90;;
20344;SDS011;10330;48.816;9.278;2022-07-06T00:44:44;2.95;;;1.60;;
20344;SDS011;10330;48.816;9.278;2022-07-06T00:47:10;5.55;;;2.05;;
20344;SDS011;10330;48.816;9.278;2022-07-06T00:49:36;7.10;;;2.00;;
20344;SDS011;10330;48.816;9.278;2022-07-06T00:52:21;3.72;;;1.80;;
20344;SDS011;10330;48.816;9.278;2022-07-06T00:54:47;2.08;;;1.60;;
20344;SDS011;10330;48.816;9.278;2022-07-06T00:57:14;2.75;;;2.20;;
20344;SDS011;10330;48.816;9.278;2022-07-06T00:59:40;4.25;;;1.80;;
20344;SDS011;10330;48.816;9.278;2022-07-06T01:02:06;1.73;;;1.60;;
20344;SDS011;10330;48.816;9.278;2022-07-06T01:04:32;3.80;;;1.73;;
20344;SDS011;10330;48.816;9.278;2022-07-06T01:06:58;2.08;;;1.98;;
20344;SDS011;10330;48.816;9.278;2022-07-06T01:09:27;3.40;;;1.75;;
20344;SDS011;10330;48.816;9.278;2022-07-06T01:11:53;2.25;;;2.05;;
20344;SDS011;10330;48.816;9.278;2022-07-06T01:14:24;1.90;;;1.80;;
20344;SDS011;10330;48.816;9.278;2022-07-06T01:16:51;1.77;;;1.67;;
20344;SDS011;10330;48.816;9.278;2022-07-06T01:19:17;5.72;;;2.03;;
20344;SDS011;10330;48.816;9.278;2022-07-06T01:21:43;1.95;;;1.83;;
20344;SDS011;10330;48.816;9.278;2022-07-06T01:24:10;2.00;;;1.90;;
20344;SDS011;10330;48.816;9.278;2022-07-06T01:26:37;4.40;;;1.85;;
20344;SDS011;10330;48.816;9.278;2022-07-06T01:29:03;6.63;;;2.00;;
20344;SDS011;10330;48.816;9.278;2022-07-06T01:31:30;5.10;;;2.25;;
20344;SDS011;10330;48.816;9.278;2022-07-06T01:33:58;11.95;;;3.38;;
20344;SDS011;10330;48.816;9.278;2022-07-06T01:36:25;4.18;;;1.70;;
20344;SDS011;10330;48.816;9.278;2022-07-06T01:38:53;1.83;;;1.73;;
20344;SDS011;10330;48.816;9.278;2022-07-06T01:41:20;4.05;;;2.10;;
20344;SDS011;10330;48.816;9.278;2022-07-06T01:43:47;1.70;;;1.70;;
20344;SDS011;10330;48.816;9.278;2022-07-06T01:46:13;3.47;;;1.90;;
20344;SDS011;10330;48.816;9.278;2022-07-06T01:48:40;7.25;;;2.25;;
20344;SDS011;10330;48.816;9.278;2022-07-06T01:51:07;7.53;;;1.70;;
20344;SDS011;10330;48.816;9.278;2022-07-06T01:53:35;2.05;;;1.77;;
20344;SDS011;10330;48.816;9.278;2022-07-06T01:56:03;2.28;;;1.77;;
20344;SDS011;10330;48.816;9.278;2022-07-06T01:58:29;4.38;;;2.03;;
20344;SDS011;10330;48.816;9.278;2022-07-06T02:00:55;3.38;;;2.10;;
20344;SDS011;10330;48.816;9.278;2022-07-06T02:03:22;2.15;;;1.50;;
20344;SDS011;10330;48.816;9.278;2022-07-06T02:05:48;4.15;;;2.08;;
20344;SDS011;10330;48.816;9.278;2022-07-06T02:08:14;5.68;;;2.05;;
20344;SDS011;10330;48.816;9.278;2022-07-06T02:10:40;3.03;;;2.03;;
20344;SDS011;10330;48.816;9.278;2022-07-06T02:13:07;11.85;;;1.92;;
20344;SDS011;10330;48.816;9.278;2022-07-06T02:15:33;4.28;;;2.10;;
20344;SDS011;10330;48.816;9.278;2022-07-06T02:17:59;1.88;;;1.73;;
20344;SDS011;10330;48.816;9.278;2022-07-06T02:20:25;2.22;;;1.73;;
20344;SDS011;10330;48.816;9.278;2022-07-06T02:22:51;4.03;;;2.15;;
20344;SDS011;10330;48.816;9.278;2022-07-06T02:25:17;2.10;;;1.90;;
20344;SDS011;10330;48.816;9.278;2022-07-06T02:27:44;2.53;;;2.17;;
20344;SDS011;10330;48.816;9.278;2022-07-06T02:30:11;2.67;;;2.00;;
20344;SDS011;10330;48.816;9.278;2022-07-06T02:32:38;3.60;;;2.00;;
20344;SDS011;10330;48.816;9.278;2022-07-06T02:35:04;2.90;;;1.77;;
20344;SDS011;10330;48.816;9.278;2022-07-06T02:37:31;4.68;;;2.00;;
20344;SDS011;10330;48.816;9.278;2022-07-06T02:39:57;2.78;;;2.03;;
20344;SDS011;10330;48.816;9.278;2022-07-06T02:42:25;2.65;;;2.00;;
20344;SDS011;10330;48.816;9.278;2022-07-06T02:44:52;5.65;;;2.45;;
20344;SDS011;10330;48.816;9.278;2022-07-06T02:47:20;4.03;;;2.50;;
20344;SDS011;10330;48.816;9.278;2022-07-06T02:49:47;6.80;;;2.05;;
20344;SDS011;10330;48.816;9.278;2022-07-06T02:52:13;2.38;;;2.17;;
20344;SDS011;10330;48.816;9.278;2022-07-06T02:54:40;1.98;;;1.88;;
20344;SDS011;10330;48.816;9.278;2022-07-06T02:57:06;9.93;;;1.88;;
20344;SDS011;10330;48.816;9.278;2022-07-06T02:59:32;11.95;;;1.98;;
20344;SDS011;10330;48.816;9.278;2022-07-06T03:01:59;6.18;;;2.20;;
20344;SDS011;10330;48.816;9.278;2022-07-06T03:04:25;2.28;;;1.80;;
20344;SDS011;10330;48.816;9.278;2022-07-06T03:06:52;3.83;;;1.80;;
20344;SDS011;10330;48.816;9.278;2022-07-06T03:09:19;4.68;;;2.13;;
20344;SDS011;10330;48.816;9.278;2022-07-06T03:11:45;2.05;;;1.70;;
20344;SDS011;10330;48.816;9.278;2022-07-06T03:14:11;3.80;;;1.63;;
20344;SDS011;10330;48.816;9.278;2022-07-06T03:16:41;2.28;;;1.85;;
20344;SDS011;10330;48.816;9.278;2022-07-06T03:19:07;2.38;;;1.70;;
20344;SDS011;10330;48.816;9.278;2022-07-06T03:21:33;2.17;;;1.98;;
20344;SDS011;10330;48.816;9.278;2022-07-06T03:24:00;2.75;;;1.85;;
20344;SDS011;10330;48.816;9.278;2022-07-06T03:26:27;4.55;;;2.13;;
20344;SDS011;10330;48.816;9.278;2022-07-06T03:28:54;2.65;;;1.92;;
20344;SDS011;10330;48.816;9.278;2022-07-06T03:31:20;3.92;;;2.20;;
20344;SDS011;10330;48.816;9.278;2022-07-06T03:33:46;5.70;;;2.00;;
20344;SDS011;10330;48.816;9.278;2022-07-06T03:36:13;2.25;;;2.05;;
20344;SDS011;10330;48.816;9.278;2022-07-06T03:38:39;2.33;;;1.80;;
20344;SDS011;10330;48.816;9.278;2022-07-06T03:41:05;2.85;;;2.00;;
20344;SDS011;10330;48.816;9.278;2022-07-06T03:43:32;2.80;;;2.15;;
20344;SDS011;10330;48.816;9.278;2022-07-06T03:45:58;5.03;;;1.92;;
20344;SDS011;10330;48.816;9.278;2022-07-06T03:48:26;2.05;;;1.92;;
20344;SDS011;10330;48.816;9.278;2022-07-06T03:50:52;1.92;;;1.80;;
20344;SDS011;10330;48.816;9.278;2022-07-06T03:53:19;4.97;;;2.17;;
20344;SDS011;10330;48.816;9.278;2022-07-06T03:55:46;4.57;;;2.13;;
20344;SDS011;10330;48.816;9.278;2022-07-06T03:58:31;2.70;;;1.98;;
20344;SDS011;10330;48.816;9.278;2022-07-06T04:00:58;6.18;;;2.28;;
20344;SDS011;10330;48.816;9.278;2022-07-06T04:03:24;2.75;;;2.42;;
20344;SDS011;10330;48.816;9.278;2022-07-06T04:05:50;9.18;;;2.50;;
20344;SDS011;10330;48.816;9.278;2022-07-06T04:08:16;6.57;;;2.30;;
20344;SDS011;10330;48.816;9.278;2022-07-06T04:10:49;6.22;;;2.28;;
20344;SDS011;10330;48.816;9.278;2022-07-06T04:13:15;3.20;;;2.17;;
20344;SDS011;10330;48.816;9.278;2022-07-06T04:15:42;1.80;;;1.67;;
20344;SDS011;10330;48.816;9.278;2022-07-06T04:18:08;7.88;;;2.97;;
20344;SDS011;10330;48.816;9.278;2022-07-06T04:20:40;3.08;;;2.13;;
20344;SDS011;10330;48.816;9.278;2022-07-06T04:23:06;5.45;;;2.15;;
20344;SDS011;10330;48.816;9.278;2022-07-06T04:25:33;1.90;;;1.73;;
20344;SDS011;10330;48.816;9.278;2022-07-06T04:28:01;10.02;;;2.33;;
20344;SDS011;10330;48.816;9.278;2022-07-06T04:30:29;13.43;;;2.47;;
20344;SDS011;10330;48.816;9.278;2022-07-06T04:32:56;2.47;;;2.28;;
20344;SDS011;10330;48.816;9.278;2022-07-06T04:35:25;3.60;;;2.30;;
20344;SDS011;10330;48.816;9.278;2022-07-06T04:37:53;4.50;;;2.05;;
20344;SDS011;10330;48.816;9.278;2022-07-06T04:40:20;2.85;;;2.17;;
20344;SDS011;10330;48.816;9.278;2022-07-06T04:42:50;3.10;;;2.80;;
20344;SDS011;10330;48.816;9.278;2022-07-06T04:45:16;4.60;;;2.50;;
20344;SDS011;10330;48.816;9.278;2022-07-06T04:47:43;3.90;;;2.60;;
20344;SDS011;10330;48.816;9.278;2022-07-06T04:50:13;6.60;;;2.47;;
20344;SDS011;10330;48.816;9.278;2022-07-06T04:52:41;4.75;;;2.28;;
20344;SDS011;10330;48.816;9.278;2022-07-06T04:55:07;4.82;;;2.38;;
20344;SDS011;10330;48.816;9.278;2022-07-06T04:57:34;2.83;;;2.63;;
20344;SDS011;10330;48.816;9.278;2022-07-06T05:00:03;4.50;;;2.40;;
20344;SDS011;10330;48.816;9.278;2022-07-06T05:02:31;2.45;;;2.35;;
20344;SDS011;10330;48.816;9.278;2022-07-06T05:04:57;3.85;;;2.50;;
20344;SDS011;10330;48.816;9.278;2022-07-06T05:07:24;4.03;;;2.72;;
20344;SDS011;10330;48.816;9.278;2022-07-06T05:09:55;5.40;;;3.08;;
20344;SDS011;10330;48.816;9.278;2022-07-06T05:12:21;7.00;;;3.70;;
20344;SDS011;10330;48.816;9.278;2022-07-06T05:14:47;7.25;;;3.00;;
20344;SDS011;10330;48.816;9.278;2022-07-06T05:17:14;4.43;;;2.60;;
20344;SDS011;10330;48.816;9.278;2022-07-06T05:19:40;3.92;;;2.95;;
20344;SDS011;10330;48.816;9.278;2022-07-06T05:22:07;4.88;;;2.67;;
20344;SDS011;10330;48.816;9.278;2022-07-06T05:24:34;4.88;;;3.03;;
20344;SDS011;10330;48.816;9.278;2022-07-06T05:27:00;3.20;;;2.63;;
20344;SDS011;10330;48.816;9.278;2022-07-06T05:29:27;7.40;;;2.65;;
20344;SDS011;10330;48.816;9.278;2022-07-06T05:31:53;6.85;;;2.78;;
20344;SDS011;10330;48.816;9.278;2022-07-06T05:34:20;6.32;;;2.45;;
20344;SDS011;10330;48.816;9.278;2022-07-06T05:36:46;3.67;;;2.53;;
20344;SDS011;10330;48.816;9.278;2022-07-06T05:39:13;4.53;;;2.65;;
20344;SDS011;10330;48.816;9.278;2022-07-06T05:41:45;6.75;;;2.53;;
20344;SDS011;10330;48.816;9.278;2022-07-06T05:44:11;6.20;;;2.90;;
20344;SDS011;10330;48.816;9.278;2022-07-06T05:46:38;4.03;;;2.53;;
20344;SDS011;10330;48.816;9.278;2022-07-06T05:49:05;3.50;;;2.15;;
20344;SDS011;10330;48.816;9.278;2022-07-06T05:51:54;6.25;;;2.60;;
20344;SDS011;10330;48.816;9.278;2022-07-06T05:54:26;4.55;;;2.20;;
20344;SDS011;10330;48.816;9.278;2022-07-06T05:56:53;7.50;;;2.95;;
20344;SDS011;10330;48.816;9.278;2022-07-06T05:59:20;3.88;;;3.40;;
20344;SDS011;10330;48.816;9.278;2022-07-06T06:01:46;8.38;;;2.50;;
20344;SDS011;10330;48.816;9.278;2022-07-06T06:04:21;2.90;;;2.58;;
20344;SDS011;10330;48.816;9.278;2022-07-06T06:06:55;9.55;;;2.58;;
20344;SDS011;10330;48.816;9.278;2022-07-06T06:09:21;7.50;;;2.78;;
20344;SDS011;10330;48.816;9.278;2022-07-06T06:11:48;5.35;;;2.92;;
20344;SDS011;10330;48.816;9.278;2022-07-06T06:14:17;6.57;;;2.72;;
20344;SDS011;10330;48.816;9.278;2022-07-06T06:16:45;2.60;;;2.50;;
20344;SDS011;10330;48.816;9.278;2022-07-06T06:19:15;3.20;;;2.90;;
20344;SDS011;10330;48.816;9.278;2022-07-06T06:21:42;3.40;;;2.70;;
20344;SDS011;10330;48.816;9.278;2022-07-06T06:24:17;2.55;;;2.17;;
20344;SDS011;10330;48.816;9.278;2022-07-06T06:26:47;5.20;;;2.90;;
20344;SDS011;10330;48.816;9.278;2022-07-06T06:29:45;6.15;;;2.55;;
20344;SDS011;10330;48.816;9.278;2022-07-06T06:32:14;3.35;;;2.50;;
20344;SDS011;10330;48.816;9.278;2022-07-06T06:34:40;5.10;;;2.60;;
20344;SDS011;10330;48.816;9.278;2022-07-06T06:37:07;11.30;;;3.17;;
20344;SDS011;10330;48.816;9.278;2022-07-06T06:39:33;7.72;;;2.53;;
20344;SDS011;10330;48.816;9.278;2022-07-06T06:41:59;6.50;;;2.58;;
20344;SDS011;10330;48.816;9.278;2022-07-06T06:44:31;5.90;;;2.50;;
20344;SDS011;10330;48.816;9.278;2022-07-06T06:46:57;5.88;;;2.55;;
20344;SDS011;10330;48.816;9.278;2022-07-06T06:49:23;2.30;;;2.05;;
20344;SDS011;10330;48.816;9.278;2022-07-06T06:51:50;11.70;;;2.67;;
20344;SDS011;10330;48.816;9.278;2022-07-06T06:54:16;3.75;;;2.38;;
20344;SDS011;10330;48.816;9.278;2022-07-06T06:56:42;5.22;;;2.20;;
20344;SDS011;10330;48.816;9.278;2022-07-06T06:59:09;2.30;;;2.20;;
20344;SDS011;10330;48.816;9.278;2022-07-06T07:01:35;6.30;;;2.35;;
20344;SDS011;10330;48.816;9.278;2022-07-06T07:04:01;5.57;;;3.10;;
20344;SDS011;10330;48.816;9.278;2022-07-06T07:06:27;4.22;;;2.45;;
20344;SDS011;10330;48.816;9.278;2022-07-06T07:08:54;3.13;;;2.13;;
20344;SDS011;10330;48.816;9.278;2022-07-06T07:11:21;7.38;;;2.05;;
20344;SDS011;10330;48.816;9.278;2022-07-06T07:13:50;6.15;;;2.30;;
20344;SDS011;10330;48.816;9.278;2022-07-06T07:16:16;4.40;;;2.20;;
20344;SDS011;10330;48.816;9.278;2022-07-06T07:18:43;2.55;;;2.25;;
20344;SDS011;10330;48.816;9.278;2022-07-06T07:21:12;3.55;;;3.20;;
20344;SDS011;10330;48.816;9.278;2022-07-06T07:23:38;6.90;;;1.85;;
20344;SDS011;10330;48.816;9.278;2022-07-06T07:26:08;4.07;;;2.80;;
20344;SDS011;10330;48.816;9.278;2022-07-06T07:28:34;8.85;;;2.58;;
20344;SDS011;10330;48.816;9.278;2022-07-06T07:31:01;3.03;;;2.30;;
20344;SDS011;10330;48.816;9.278;2022-07-06T07:33:27;5.80;;;2.20;;
20344;SDS011;10330;48.816;9.278;2022-07-06T07:35:54;6.45;;;2.40;;
20344;SDS011;10330;48.816;9.278;2022-07-06T07:38:21;3.28;;;2.47;;
20344;SDS011;10330;48.816;9.278;2022-07-06T07:40:50;4.50;;;2.35;;
20344;SDS011;10330;48.816;9.278;2022-07-06T07:43:20;3.85;;;2.45;;
20344;SDS011;10330;48.816;9.278;2022-07-06T07:45:46;6.22;;;2.47;;
20344;SDS011;10330;48.816;9.278;2022-07-06T07:48:13;6.20;;;2.63;;
20344;SDS011;10330;48.816;9.278;2022-07-06T07:50:41;3.13;;;2.42;;
20344;SDS011;10330;48.816;9.278;2022-07-06T07:53:07;3.78;;;2.38;;
20344;SDS011;10330;48.816;9.278;2022-07-06T07:55:33;6.50;;;3.22;;
20344;SDS011;10330;48.816;9.278;2022-07-06T07:57:59;8.23;;;2.38;;
20344;SDS011;10330;48.816;9.278;2022-07-06T08:04:29;3.38;;;2.20;;
20344;SDS011;10330;48.816;9.278;2022-07-06T08:06:55;5.15;;;2.60;;
20344;SDS011;10330;48.816;9.278;2022-07-06T08:09:22;6.97;;;2.58;;
20344;SDS011;10330;48.816;9.278;2022-07-06T08:11:48;8.40;;;2.38;;
20344;SDS011;10330;48.816;9.278;2022-07-06T08:14:14;3.97;;;2.60;;
20344;SDS011;10330;48.816;9.278;2022-07-06T08:16:42;6.18;;;2.10;;
20344;SDS011;10330;48.816;9.278;2022-07-06T08:19:08;8.10;;;2.40;;
20344;SDS011;10330;48.816;9.278;2022-07-06T08:21:35;2.78;;;2.45;;
20344;SDS011;10330;48.816;9.278;2022-07-06T08:24:01;7.28;;;2.92;;
20344;SDS011;10330;48.816;9.278;2022-07-06T08:26:28;5.75;;;2.45;;
20344;SDS011;10330;48.816;9.278;2022-07-06T08:28:54;8.40;;;2.60;;
20344;SDS011;10330;48.816;9.278;2022-07-06T08:31:22;7.38;;;2.85;;
20344;SDS011;10330;48.816;9.278;2022-07-06T08:33:48;3.17;;;2.35;;
20344;SDS011;10330;48.816;9.278;2022-07-06T08:36:15;12.40;;;3.30;;
20344;SDS011;10330;48.816;9.278;2022-07-06T08:38:41;6.72;;;2.30;;
20344;SDS011;10330;48.816;9.278;2022-07-06T08:41:07;3.20;;;2.83;;
20344;SDS011;10330;48.816;9.278;2022-07-06T08:43:34;6.60;;;2.42;;
20344;SDS011;10330;48.816;9.278;2022-07-06T08:46:01;2.30;;;2.10;;
20344;SDS011;10330;48.816;9.278;2022-07-06T08:48:28;7.97;;;2.83;;
20344;SDS011;10330;48.816;9.278;2022-07-06T08:51:01;2.50;;;2.30;;
20344;SDS011;10330;48.816;9.278;2022-07-06T08:53:28;3.97;;;2.53;;
20344;SDS011;10330;48.816;9.278;2022-07-06T08:55:54;4.88;;;2.42;;
20344;SDS011;10330;48.816;9.278;2022-07-06T08:58:31;13.07;;;2.90;;
20344;SDS011;10330;48.816;9.278;2022-07-06T09:00:59;11.65;;;2.40;;
20344;SDS011;10330;48.816;9.278;2022-07-06T09:03:26;3.88;;;2.50;;
20344;SDS011;10330;48.816;9.278;2022-07-06T09:05:58;8.35;;;2.90;;
20344;SDS011;10330;48.816;9.278;2022-07-06T09:08:28;4.78;;;2.88;;
20344;SDS011;10330;48.816;9.278;2022-07-06T09:11:00;4.53;;;2.90;;
20344;SDS011;10330;48.816;9.278;2022-07-06T09:13:27;8.13;;;2.47;;
20344;SDS011;10330;48.816;9.278;2022-07-06T09:15:53;3.45;;;2.65;;
20344;SDS011;10330;48.816;9.278;2022-07-06T09:18:21;2.45;;;2.25;;
20344;SDS011;10330;48.816;9.278;2022-07-06T09:20:48;4.93;;;2.67;;
20344;SDS011;10330;48.816;9.278;2022-07-06T09:23:15;6.22;;;2.92;;
20344;SDS011;10330;48.816;9.278;2022-07-06T09:25:54;5.45;;;2.80;;
20344;SDS011;10330;48.816;9.278;2022-07-06T09:28:23;3.47;;;2.75;;
20344;SDS011;10330;48.816;9.278;2022-07-06T09:31:09;5.18;;;2.55;;
20344;SDS011;10330;48.816;9.278;2022-07-06T09:33:39;3.13;;;2.20;;
20344;SDS011;10330;48.816;9.278;2022-07-06T09:41:55;2.28;;;2.13;;
20344;SDS011;10330;48.816;9.278;2022-07-06T09:44:29;13.38;;;2.60;;
20344;SDS011;10330;48.816;9.278;2022-07-06T09:46:58;4.50;;;2.35;;
20344;SDS011;10330;48.816;9.278;2022-07-06T09:49:25;7.05;;;2.55;;
20344;SDS011;10330;48.816;9.278;2022-07-06T09:51:53;14.15;;;6.60;;
20344;SDS011;10330;48.816;9.278;2022-07-06T09:54:21;13.75;;;5.38;;
20344;SDS011;10330;48.816;9.278;2022-07-06T09:56:57;11.15;;;3.92;;
20344;SDS011;10330;48.816;9.278;2022-07-06T09:59:36;4.95;;;2.33;;
20344;SDS011;10330;48.816;9.278;2022-07-06T10:05:49;8.07;;;2.90;;
20344;SDS011;10330;48.816;9.278;2022-07-06T10:08:34;7.22;;;2.65;;
20344;SDS011;10330;48.816;9.278;2022-07-06T10:11:27;5.15;;;2.75;;
20344;SDS011;10330;48.816;9.278;2022-07-06T10:14:53;5.32;;;2.30;;
20344;SDS011;10330;48.816;9.278;2022-07-06T10:20:44;3.85;;;2.08;;
20344;SDS011;10330;48.816;9.278;2022-07-06T10:30:47;6.45;;;2.75;;
20344;SDS011;10330;48.816;9.278;2022-07-06T10:33:47;7.40;;;3.28;;
20344;SDS011;10330;48.816;9.278;2022-07-06T10:37:38;5.82;;;4.03;;
20344;SDS011;10330;48.816;9.278;2022-07-06T10:40:38;6.18;;;2.60;;
20344;SDS011;10330;48.816;9.278;2022-07-06T10:54:32;3.70;;;1.95;;
20344;SDS011;10330;48.816;9.278;2022-07-06T10:57:10;7.18;;;2.88;;
20344;SDS011;10330;48.816;9.278;2022-07-06T10:59:40;3.58;;;2.00;;
20344;SDS011;10330;48.816;9.278;2022-07-06T11:02:30;3.15;;;2.13;;
20344;SDS011;10330;48.816;9.278;2022-07-06T11:05:10;3.08;;;2.50;;
20344;SDS011;10330;48.816;9.278;2022-07-06T11:07:48;3.13;;;2.10;;
20344;SDS011;10330;48.816;9.278;2022-07-06T11:10:17;23.20;;;3.55;;
20344;SDS011;10330;48.816;9.278;2022-07-06T11:12:45;7.95;;;2.40;;
20344;SDS011;10330;48.816;9.278;2022-07-06T11:21:34;6.65;;;2.00;;
20344;SDS011;10330;48.816;9.278;2022-07-06T11:24:03;3.10;;;2.00;;
20344;SDS011;10330;48.816;9.278;2022-07-06T11:26:34;2.63;;;1.92;;
20344;SDS011;10330;48.816;9.278;2022-07-06T11:29:05;3.85;;;1.85;;
20344;SDS011;10330;48.816;9.278;2022-07-06T11:31:42;2.20;;;1.88;;
20344;SDS011;10330;48.816;9.278;2022-07-06T11:34:12;6.18;;;2.20;;
20344;SDS011;10330;48.816;9.278;2022-07-06T11:36:43;4.28;;;2.05;;
20344;SDS011;10330;48.816;9.278;2022-07-06T11:39:12;8.48;;;2.20;;
20344;SDS011;10330;48.816;9.278;2022-07-06T11:41:54;3.92;;;2.30;;
20344;SDS011;10330;48.816;9.278;2022-07-06T11:44:48;6.90;;;2.28;;
20344;SDS011;10330;48.816;9.278;2022-07-06T11:47:16;3.65;;;1.95;;
20344;SDS011;10330;48.816;9.278;2022-07-06T11:49:42;4.88;;;2.45;;
20344;SDS011;10330;48.816;9.278;2022-07-06T11:52:12;7.93;;;2.08;;
20344;SDS011;10330;48.816;9.278;2022-07-06T11:54:39;6.18;;;2.22;;
20344;SDS011;10330;48.816;9.278;2022-07-06T11:57:19;2.95;;;2.33;;
20344;SDS011;10330;48.816;9.278;2022-07-06T12:00:29;1.80;;;1.70;;
20344;SDS011;10330;48.816;9.278;2022-07-06T12:03:02;5.45;;;1.85;;
20344;SDS011;10330;48.816;9.278;2022-07-06T12:05:38;4.90;;;2.40;;
20344;SDS011;10330;48.816;9.278;2022-07-06T12:08:14;9.68;;;2.17;;
20344;SDS011;10330;48.816;9.278;2022-07-06T12:10:47;4.80;;;1.67;;
20344;SDS011;10330;48.816;9.278;2022-07-06T12:13:16;3.05;;;2.20;;
20344;SDS011;10330;48.816;9.278;2022-07-06T12:16:11;5.75;;;2.00;;
20344;SDS011;10330;48.816;9.278;2022-07-06T12:18:52;1.85;;;1.50;;
20344;SDS011;10330;48.816;9.278;2022-07-06T12:21:21;5.05;;;2.35;;
20344;SDS011;10330;48.816;9.278;2022-07-06T12:24:00;2.03;;;1.92;;
20344;SDS011;10330;48.816;9.278;2022-07-06T12:26:27;6.25;;;2.28;;
20344;SDS011;10330;48.816;9.278;2022-07-06T12:29:08;2.45;;;2.03;;
20344;SDS011;10330;48.816;9.278;2022-07-06T12:31:51;2.80;;;1.80;;
20344;SDS011;10330;48.816;9.278;2022-07-06T12:34:28;6.22;;;2.75;;
20344;SDS011;10330;48.816;9.278;2022-07-06T12:37:05;2.75;;;1.67;;
20344;SDS011;10330;48.816;9.278;2022-07-06T12:39:42;4.85;;;1.92;;
20344;SDS011;10330;48.816;9.278;2022-07-06T12:42:13;6.40;;;2.50;;
20344;SDS011;10330;48.816;9.278;2022-07-06T12:44:41;5.00;;;2.92;;
20344;SDS011;10330;48.816;9.278;2022-07-06T12:47:10;10.95;;;3.05;;
20344;SDS011;10330;48.816;9.278;2022-07-06T12:49:40;6.15;;;1.95;;
20344;SDS011;10330;48.816;9.278;2022-07-06T12:52:09;3.92;;;1.95;;
20344;SDS011;10330;48.816;9.278;2022-07-06T12:57:18;4.97;;;1.98;;
20344;SDS011;10330;48.816;9.278;2022-07-06T13:02:21;6.25;;;2.10;;
20344;SDS011;10330;48.816;9.278;2022-07-06T13:08:07;4.18;;;2.10;;
20344;SDS011;10330;48.816;9.278;2022-07-06T13:10:34;5.88;;;3.40;;
20344;SDS011;10330;48.816;9.278;2022-07-06T13:13:01;3.03;;;2.70;;
20344;SDS011;10330;48.816;9.278;2022-07-06T13:15:27;8.40;;;2.20;;
20344;SDS011;10330;48.816;9.278;2022-07-06T13:17:54;2.53;;;1.70;;
20344;SDS011;10330;48.816;9.278;2022-07-06T13:20:20;3.70;;;1.95;;
20344;SDS011;10330;48.816;9.278;2022-07-06T13:22:49;3.88;;;1.92;;
20344;SDS011;10330;48.816;9.278;2022-07-06T13:25:16;9.40;;;1.98;;
20344;SDS011;10330;48.816;9.278;2022-07-06T13:27:42;9.02;;;1.70;;
20344;SDS011;10330;48.816;9.278;2022-07-06T13:30:11;5.47;;;1.52;;
20344;SDS011;10330;48.816;9.278;2022-07-06T13:32:38;2.38;;;1.83;;
20344;SDS011;10330;48.816;9.278;2022-07-06T13:35:23;1.70;;;1.45;;
20344;SDS011;10330;48.816;9.278;2022-07-06T13:37:58;9.80;;;2.00;;
20344;SDS011;10330;48.816;9.278;2022-07-06T13:40:27;5.35;;;1.65;;
20344;SDS011;10330;48.816;9.278;2022-07-06T13:43:29;4.15;;;1.75;;
20344;SDS011;10330;48.816;9.278;2022-07-06T13:46:05;5.53;;;1.67;;
20344;SDS011;10330;48.816;9.278;2022-07-06T13:52:36;2.78;;;1.80;;
20344;SDS011;10330;48.816;9.278;2022-07-06T13:55:03;2.28;;;1.60;;
20344;SDS011;10330;48.816;9.278;2022-07-06T13:57:31;1.88;;;1.40;;
20344;SDS011;10330;48.816;9.278;2022-07-06T13:59:58;7.07;;;1.70;;
20344;SDS011;10330;48.816;9.278;2022-07-06T14:02:24;2.92;;;1.63;;
20344;SDS011;10330;48.816;9.278;2022-07-06T14:04:50;9.63;;;1.58;;
20344;SDS011;10330;48.816;9.278;2022-07-06T14:07:16;4.00;;;1.73;;
20344;SDS011;10330;48.816;9.278;2022-07-06T14:09:44;3.97;;;1.83;;
20344;SDS011;10330;48.816;9.278;2022-07-06T14:12:10;5.88;;;1.42;;
20344;SDS011;10330;48.816;9.278;2022-07-06T14:14:36;11.35;;;1.65;;
20344;SDS011;10330;48.816;9.278;2022-07-06T14:17:03;1.95;;;1.60;;
20344;SDS011;10330;48.816;9.278;2022-07-06T14:19:29;4.40;;;1.98;;
20344;SDS011;10330;48.816;9.278;2022-07-06T14:21:56;2.05;;;1.42;;
20344;SDS011;10330;48.816;9.278;2022-07-06T14:24:22;4.22;;;1.63;;
20344;SDS011;10330;48.816;9.278;2022-07-06T14:26:49;8.32;;;1.38;;
20344;SDS011;10330;48.816;9.278;2022-07-06T14:29:17;2.60;;;1.23;;
20344;SDS011;10330;48.816;9.278;2022-07-06T14:31:43;4.55;;;1.80;;
20344;SDS011;10330;48.816;9.278;2022-07-06T14:34:09;3.83;;;1.38;;
20344;SDS011;10330;48.816;9.278;2022-07-06T14:36:36;5.65;;;1.40;;
20344;SDS011;10330;48.816;9.278;2022-07-06T14:39:03;2.45;;;1.50;;
20344;SDS011;10330;48.816;9.278;2022-07-06T14:41:30;3.95;;;1.40;;
20344;SDS011;10330;48.816;9.278;2022-07-06T14:43:56;3.10;;;1.92;;
20344;SDS011;10330;48.816;9.278;2022-07-06T14:46:22;1.70;;;1.35;;
20344;SDS011;10330;48.816;9.278;2022-07-06T14:48:49;2.20;;;1.23;;
20344;SDS011;10330;48.816;9.278;2022-07-06T14:51:15;1.48;;;1.05;;
20344;SDS011;10330;48.816;9.278;2022-07-06T14:53:41;2.17;;;1.20;;
20344;SDS011;10330;48.816;9.278;2022-07-06T14:56:07;1.13;;;1.13;;
20344;SDS011;10330;48.816;9.278;2022-07-06T14:58:34;2.53;;;1.17;;
20344;SDS011;10330;48.816;9.278;2022-07-06T15:01:00;4.90;;;2.15;;
20344;SDS011;10330;48.816;9.278;2022-07-06T15:03:26;5.43;;;1.73;;
20344;SDS011;10330;48.816;9.278;2022-07-06T15:05:53;2.38;;;1.13;;
20344;SDS011;10330;48.816;9.278;2022-07-06T15:08:19;1.90;;;1.10;;
20344;SDS011;10330;48.816;9.278;2022-07-06T15:10:45;3.53;;;1.20;;
20344;SDS011;10330;48.816;9.278;2022-07-06T15:13:12;6.13;;;1.30;;
20344;SDS011;10330;48.816;9.278;2022-07-06T15:15:40;1.20;;;1.10;;
20344;SDS011;10330;48.816;9.278;2022-07-06T15:18:07;2.35;;;1.20;;
20344;SDS011;10330;48.816;9.278;2022-07-06T15:20:33;8.10;;;1.40;;
20344;SDS011;10330;48.816;9.278;2022-07-06T15:22:59;4.47;;;1.13;;
20344;SDS011;10330;48.816;9.278;2022-07-06T15:25:25;7.97;;;1.20;;
20344;SDS011;10330;48.816;9.278;2022-07-06T15:27:51;1.77;;;1.40;;
20344;SDS011;10330;48.816;9.278;2022-07-06T15:30:18;5.55;;;1.73;;
20344;SDS011;10330;48.816;9.278;2022-07-06T15:32:44;3.33;;;1.10;;
20344;SDS011;10330;48.816;9.278;2022-07-06T15:35:11;4.63;;;1.25;;
20344;SDS011;10330;48.816;9.278;2022-07-06T15:37:37;3.83;;;1.02;;
20344;SDS011;10330;48.816;9.278;2022-07-06T15:40:04;1.27;;;1.17;;
20344;SDS011;10330;48.816;9.278;2022-07-06T15:42:32;4.15;;;1.20;;
20344;SDS011;10330;48.816;9.278;2022-07-06T15:44:58;2.67;;;1.13;;
20344;SDS011;10330;48.816;9.278;2022-07-06T15:47:24;3.13;;;1.50;;
20344;SDS011;10330;48.816;9.278;2022-07-06T15:49:50;5.13;;;1.70;;
20344;SDS011;10330;48.816;9.278;2022-07-06T15:52:16;6.30;;;1.40;;
20344;SDS011;10330;48.816;9.278;2022-07-06T15:54:43;3.90;;;1.40;;